createdAt,value
2018-10-11T00:00:29.166Z,79.00
2018-10-11T00:01:29.116Z,79.00
2018-10-11T00:02:29.130Z,79.00
2018-10-11T00:03:29.096Z,79.00
2018-10-11T00:04:29.124Z,79.31
2018-10-11T00:05:39.382Z,79.11
2018-10-11T00:06:29.110Z,79.21
2018-10-11T00:07:29.100Z,79.72
2018-10-11T00:08:29.099Z,79.21
2018-10-11T00:09:29.071Z,79.11
2018-10-11T00:10:29.082Z,79.00
2018-10-11T00:11:29.235Z,78.91
2018-10-11T00:12:29.044Z,78.70
2018-10-11T00:13:29.002Z,78.80
2018-10-11T00:14:28.973Z,79.11
2018-10-11T00:15:29.009Z,78.70
2018-10-11T00:16:28.957Z,79.21
2018-10-11T00:17:37.986Z,79.75
2018-10-11T00:18:28.958Z,79.14
2018-10-11T00:19:36.998Z,79.45
2018-10-11T00:20:28.975Z,79.04
2018-10-11T00:21:28.950Z,79.14
2018-10-11T00:22:28.960Z,79.14
2018-10-11T00:23:29.136Z,78.94
2018-10-11T00:24:28.935Z,79.25
2018-10-11T00:25:28.855Z,79.45
2018-10-11T00:26:36.928Z,79.96
2018-10-11T00:27:36.901Z,79.96
2018-10-11T00:28:28.887Z,80.50
2018-10-11T00:29:28.881Z,80.19
2018-10-11T00:30:28.885Z,80.06
2018-10-11T00:31:28.867Z,80.40
2018-10-11T00:32:28.832Z,80.91
2018-10-11T00:33:28.859Z,80.91
2018-10-11T00:34:28.847Z,80.71
2018-10-11T00:35:28.812Z,80.71
2018-10-11T00:36:28.732Z,81.11
2018-10-11T00:37:28.757Z,80.80
2018-10-11T00:38:36.776Z,80.40
2018-10-11T00:39:28.778Z,80.60
2018-10-11T00:40:28.790Z,80.40
2018-10-11T00:41:28.764Z,80.40
2018-10-11T00:42:28.820Z,80.60
2018-10-11T00:43:28.699Z,80.60
2018-10-11T00:44:28.643Z,80.60
2018-10-11T00:45:28.651Z,79.90
2018-10-11T00:46:28.660Z,79.75
2018-10-11T00:47:28.611Z,80.26
2018-10-11T00:48:36.762Z,80.26
2018-10-11T00:49:28.721Z,80.36
2018-10-11T00:50:28.595Z,80.50
2018-10-11T00:51:28.657Z,80.26
2018-10-11T00:52:28.630Z,80.06
2018-10-11T00:53:28.686Z,80.66
2018-10-11T00:54:28.561Z,80.36
2018-10-11T00:55:28.519Z,80.60
2018-10-11T00:56:28.555Z,80.40
2018-10-11T00:57:28.519Z,79.79
2018-10-11T00:58:28.490Z,80.80
2018-10-11T00:59:36.692Z,80.10
2018-10-11T01:00:28.556Z,79.99
2018-10-11T01:01:28.518Z,80.10
2018-10-11T01:02:28.495Z,79.79
2018-10-11T01:03:28.490Z,80.10
2018-10-11T01:04:28.538Z,80.80
2018-10-11T01:05:28.617Z,80.91
2018-10-11T01:06:28.446Z,80.71
2018-10-11T01:07:28.394Z,80.91
2018-10-11T01:08:28.416Z,79.99
2018-10-11T01:09:28.452Z,80.80
2018-10-11T01:10:36.361Z,80.03
2018-10-11T01:11:28.416Z,80.60
2018-10-11T01:12:28.404Z,80.80
2018-10-11T01:13:28.513Z,80.80
2018-10-11T01:14:28.368Z,80.71
2018-10-11T01:15:28.329Z,80.80
2018-10-11T01:16:28.291Z,81.01
2018-10-11T01:17:28.332Z,81.01
2018-10-11T01:18:28.265Z,81.05
2018-10-11T01:19:28.271Z,80.94
2018-10-11T01:20:28.272Z,81.86
2018-10-11T01:21:37.625Z,81.56
2018-10-11T01:22:28.305Z,82.17
2018-10-11T01:23:28.303Z,81.86
2018-10-11T01:24:28.262Z,81.96
2018-10-11T01:25:28.296Z,81.96
2018-10-11T01:26:28.198Z,81.86
2018-10-11T01:27:28.190Z,82.26
2018-10-11T01:28:28.201Z,81.25
2018-10-11T01:29:28.185Z,82.17
2018-10-11T01:30:28.138Z,82.37
2018-10-11T01:31:28.173Z,82.47
2018-10-11T01:32:28.114Z,82.26
2018-10-11T01:33:28.120Z,81.96
2018-10-11T01:34:28.091Z,81.66
2018-10-11T01:35:28.082Z,81.70
2018-10-11T01:36:28.111Z,82.37
2018-10-11T01:37:28.057Z,82.10
2018-10-11T01:38:28.048Z,82.47
2018-10-11T01:39:28.066Z,82.61
2018-10-11T01:40:28.109Z,82.10
2018-10-11T01:41:28.020Z,82.31
2018-10-11T01:42:28.051Z,82.81
2018-10-11T01:43:27.992Z,82.31
2018-10-11T01:44:27.980Z,82.81
2018-10-11T01:45:27.972Z,83.01
2018-10-11T01:46:27.980Z,82.81
2018-10-11T01:47:27.949Z,82.81
2018-10-11T01:48:27.973Z,82.71
2018-10-11T01:49:27.927Z,82.71
2018-10-11T01:50:27.918Z,82.92
2018-10-11T01:51:27.907Z,83.62
2018-10-11T01:52:27.916Z,82.81
2018-10-11T01:53:35.575Z,81.79
2018-10-11T01:54:27.998Z,82.51
2018-10-11T01:55:27.921Z,82.71
2018-10-11T01:56:27.936Z,83.32
2018-10-11T01:57:27.994Z,83.01
2018-10-11T01:58:27.869Z,82.92
2018-10-11T01:59:27.819Z,83.22
2018-10-11T02:00:27.845Z,83.36
2018-10-11T02:01:27.796Z,82.71
2018-10-11T02:02:27.789Z,82.92
2018-10-11T02:03:27.814Z,83.12
2018-10-11T02:04:37.192Z,83.53
2018-10-11T02:05:27.831Z,82.81
2018-10-11T02:06:27.795Z,82.81
2018-10-11T02:07:27.819Z,83.12
2018-10-11T02:08:27.797Z,83.12
2018-10-11T02:09:27.878Z,83.15
2018-10-11T02:10:27.699Z,82.85
2018-10-11T02:11:27.750Z,83.06
2018-10-11T02:12:27.679Z,82.75
2018-10-11T02:13:27.660Z,82.85
2018-10-11T02:14:27.651Z,83.06
2018-10-11T02:15:35.681Z,83.56
2018-10-11T02:16:27.705Z,83.87
2018-10-11T02:17:27.727Z,83.67
2018-10-11T02:18:27.862Z,83.97
2018-10-11T02:19:27.621Z,83.26
2018-10-11T02:20:27.588Z,82.85
2018-10-11T02:21:27.573Z,83.97
2018-10-11T02:22:27.567Z,83.76
2018-10-11T02:23:27.577Z,83.87
2018-10-11T02:24:27.581Z,82.85
2018-10-11T02:25:36.556Z,83.06
2018-10-11T02:26:27.575Z,83.46
2018-10-11T02:27:27.623Z,84.07
2018-10-11T02:28:27.586Z,83.87
2018-10-11T02:29:27.599Z,83.87
2018-10-11T02:30:27.767Z,83.67
2018-10-11T02:31:27.512Z,83.76
2018-10-11T02:32:27.453Z,84.38
2018-10-11T02:33:27.482Z,84.17
2018-10-11T02:34:27.464Z,84.28
2018-10-11T02:35:27.421Z,84.21
2018-10-11T02:36:27.478Z,84.42
2018-10-11T02:37:27.407Z,84.52
2018-10-11T02:38:27.383Z,84.52
2018-10-11T02:39:27.375Z,83.91
2018-10-11T02:40:27.364Z,84.21
2018-10-11T02:41:27.351Z,84.21
2018-10-11T02:42:27.356Z,83.70
2018-10-11T02:43:27.372Z,84.31
2018-10-11T02:44:27.318Z,84.31
2018-10-11T02:45:27.306Z,84.52
2018-10-11T02:46:27.296Z,84.66
2018-10-11T02:47:27.295Z,84.45
2018-10-11T02:48:27.292Z,84.21
2018-10-11T02:49:27.284Z,84.01
2018-10-11T02:50:27.265Z,84.86
2018-10-11T02:51:27.242Z,84.15
2018-10-11T02:52:27.234Z,84.42
2018-10-11T02:53:27.223Z,84.31
2018-10-11T02:54:27.207Z,84.31
2018-10-11T02:55:27.270Z,85.06
2018-10-11T02:56:27.192Z,84.76
2018-10-11T02:57:27.180Z,84.25
2018-10-11T02:58:27.168Z,84.86
2018-10-11T02:59:35.227Z,84.97
2018-10-11T03:00:27.227Z,84.45
2018-10-11T03:01:27.247Z,85.47
2018-10-11T03:02:35.322Z,85.17
2018-10-11T03:03:27.257Z,85.58
2018-10-11T03:04:27.289Z,84.97
2018-10-11T03:05:27.150Z,85.58
2018-10-11T03:06:27.229Z,85.17
2018-10-11T03:07:27.113Z,84.86
2018-10-11T03:08:27.075Z,84.56
2018-10-11T03:09:27.054Z,84.50
2018-10-11T03:10:27.084Z,85.92
2018-10-11T03:11:27.044Z,85.82
2018-10-11T03:12:27.009Z,85.72
2018-10-11T03:13:27.079Z,86.02
2018-10-11T03:14:27.004Z,85.61
2018-10-11T03:15:26.995Z,85.41
2018-10-11T03:16:26.999Z,85.41
2018-10-11T03:17:26.990Z,85.55
2018-10-11T03:18:27.019Z,86.33
2018-10-11T03:19:26.947Z,86.83
2018-10-11T03:20:26.922Z,86.47
2018-10-11T03:21:26.952Z,85.86
2018-10-11T03:22:34.919Z,86.13
2018-10-11T03:23:26.991Z,85.61
2018-10-11T03:24:26.956Z,86.02
2018-10-11T03:25:27.087Z,86.43
2018-10-11T03:26:26.900Z,86.13
2018-10-11T03:27:26.857Z,86.37
2018-10-11T03:28:26.833Z,86.43
2018-10-11T03:29:26.837Z,86.53
2018-10-11T03:30:26.825Z,86.47
2018-10-11T03:31:26.805Z,86.53
2018-10-11T03:32:26.897Z,86.43
2018-10-11T03:33:26.792Z,86.43
2018-10-11T03:34:26.797Z,86.22
2018-10-11T03:35:26.813Z,85.82
2018-10-11T03:36:26.746Z,86.22
2018-10-11T03:37:26.759Z,86.33
2018-10-11T03:38:26.735Z,86.47
2018-10-11T03:39:26.785Z,86.02
2018-10-11T03:40:34.832Z,86.43
2018-10-11T03:41:26.802Z,86.33
2018-10-11T03:42:26.727Z,85.82
2018-10-11T03:43:26.873Z,84.90
2018-10-11T03:44:26.689Z,85.92
2018-10-11T03:45:26.654Z,86.83
2018-10-11T03:46:26.761Z,86.22
2018-10-11T03:47:26.625Z,86.27
2018-10-11T03:48:26.619Z,86.63
2018-10-11T03:49:26.674Z,86.06
2018-10-11T03:50:26.679Z,86.22
2018-10-11T03:51:26.582Z,85.82
2018-10-11T03:52:26.594Z,86.22
2018-10-11T03:53:26.569Z,86.22
2018-10-11T03:54:26.604Z,86.16
2018-10-11T03:55:26.550Z,86.13
2018-10-11T03:56:26.542Z,85.51
2018-10-11T03:57:26.513Z,86.27
2018-10-11T03:58:35.988Z,85.96
2018-10-11T03:59:26.550Z,86.22
2018-10-11T04:00:26.618Z,86.27
2018-10-11T04:01:26.537Z,86.06
2018-10-11T04:02:26.717Z,86.27
2018-10-11T04:03:26.487Z,86.27
2018-10-11T04:04:26.456Z,86.06
2018-10-11T04:05:26.446Z,86.27
2018-10-11T04:06:26.414Z,86.06
2018-10-11T04:07:26.479Z,86.77
2018-10-11T04:08:26.393Z,86.88
2018-10-11T04:09:26.414Z,86.37
2018-10-11T04:10:26.499Z,86.57
2018-10-11T04:11:26.384Z,86.37
2018-10-11T04:12:26.350Z,86.37
2018-10-11T04:13:26.439Z,86.47
2018-10-11T04:14:26.327Z,86.37
2018-10-11T04:15:26.332Z,86.37
2018-10-11T04:16:26.379Z,86.37
2018-10-11T04:17:34.477Z,86.37
2018-10-11T04:18:26.454Z,86.77
2018-10-11T04:19:26.429Z,86.51
2018-10-11T04:20:26.374Z,87.02
2018-10-11T04:21:26.448Z,86.82
2018-10-11T04:22:26.274Z,87.23
2018-10-11T04:23:26.236Z,86.61
2018-10-11T04:24:26.278Z,86.71
2018-10-11T04:25:26.205Z,86.61
2018-10-11T04:26:26.209Z,86.92
2018-10-11T04:27:26.207Z,87.02
2018-10-11T04:28:26.236Z,86.82
2018-10-11T04:29:26.170Z,86.92
2018-10-11T04:30:26.148Z,86.82
2018-10-11T04:31:26.141Z,86.61
2018-10-11T04:32:26.138Z,86.51
2018-10-11T04:33:26.175Z,86.82
2018-10-11T04:34:34.347Z,87.63
2018-10-11T04:35:26.288Z,86.71
2018-10-11T04:36:26.133Z,86.71
2018-10-11T04:37:26.231Z,86.71
2018-10-11T04:38:26.125Z,87.02
2018-10-11T04:39:26.107Z,86.92
2018-10-11T04:40:26.064Z,86.51
2018-10-11T04:41:26.026Z,87.23
2018-10-11T04:42:26.027Z,86.92
2018-10-11T04:43:26.048Z,87.73
2018-10-11T04:44:26.042Z,87.06
2018-10-11T04:45:25.994Z,86.45
2018-10-11T04:46:25.990Z,87.16
2018-10-11T04:47:25.985Z,87.37
2018-10-11T04:48:25.948Z,87.57
2018-10-11T04:49:26.041Z,87.77
2018-10-11T04:50:25.954Z,87.67
2018-10-11T04:51:25.916Z,87.32
2018-10-11T04:52:34.252Z,87.77
2018-10-11T04:53:26.088Z,88.08
2018-10-11T04:54:25.943Z,88.08
2018-10-11T04:55:25.931Z,88.28
2018-10-11T04:56:26.030Z,88.04
2018-10-11T04:57:25.898Z,87.84
2018-10-11T04:58:25.844Z,86.82
2018-10-11T04:59:25.917Z,87.23
2018-10-11T05:00:25.828Z,86.92
2018-10-11T05:01:25.828Z,87.12
2018-10-11T05:02:25.875Z,87.63
2018-10-11T05:03:25.834Z,87.43
2018-10-11T05:04:25.774Z,87.23
2018-10-11T05:05:25.850Z,87.02
2018-10-11T05:06:25.777Z,86.82
2018-10-11T05:07:25.749Z,86.71
2018-10-11T05:08:25.753Z,86.82
2018-10-11T05:09:25.732Z,86.61
2018-10-11T05:10:25.719Z,86.30
2018-10-11T05:11:33.845Z,86.61
2018-10-11T05:12:25.781Z,86.10
2018-10-11T05:13:25.773Z,86.15
2018-10-11T05:14:25.829Z,86.65
2018-10-11T05:15:25.808Z,86.86
2018-10-11T05:16:25.693Z,87.77
2018-10-11T05:17:25.691Z,87.37
2018-10-11T05:18:25.614Z,87.41
2018-10-11T05:19:25.661Z,87.10
2018-10-11T05:20:25.608Z,87.82
2018-10-11T05:21:25.655Z,88.02
2018-10-11T05:22:25.735Z,88.22
2018-10-11T05:23:25.562Z,87.92
2018-10-11T05:24:25.552Z,88.63
2018-10-11T05:25:25.624Z,88.63
2018-10-11T05:26:25.545Z,88.12
2018-10-11T05:27:25.531Z,88.32
2018-10-11T05:28:25.520Z,88.12
2018-10-11T05:29:33.271Z,87.20
2018-10-11T05:30:25.554Z,87.51
2018-10-11T05:31:25.547Z,87.82
2018-10-11T05:32:25.689Z,87.71
2018-10-11T05:33:25.589Z,87.82
2018-10-11T05:34:25.573Z,87.61
2018-10-11T05:35:25.429Z,87.71
2018-10-11T05:36:25.454Z,87.41
2018-10-11T05:37:25.439Z,87.82
2018-10-11T05:38:25.476Z,87.41
2018-10-11T05:39:25.430Z,87.20
2018-10-11T05:40:25.376Z,88.63
2018-10-11T05:41:25.398Z,88.32
2018-10-11T05:42:25.350Z,88.63
2018-10-11T05:43:25.358Z,88.22
2018-10-11T05:44:25.350Z,87.92
2018-10-11T05:45:25.317Z,87.57
2018-10-11T05:46:25.374Z,87.00
2018-10-11T05:47:33.334Z,87.30
2018-10-11T05:48:25.339Z,87.00
2018-10-11T05:49:25.391Z,87.30
2018-10-11T05:50:25.421Z,87.82
2018-10-11T05:51:25.312Z,87.30
2018-10-11T05:52:25.422Z,86.76
2018-10-11T05:53:25.270Z,87.20
2018-10-11T05:54:25.325Z,87.61
2018-10-11T05:55:25.257Z,87.82
2018-10-11T05:56:25.195Z,87.82
2018-10-11T05:57:25.190Z,87.82
2018-10-11T05:58:25.193Z,86.69
2018-10-11T05:59:25.469Z,86.59
2018-10-11T06:00:25.187Z,86.90
2018-10-11T06:01:25.159Z,87.47
2018-10-11T06:02:25.223Z,86.65
2018-10-11T06:03:25.117Z,86.76
2018-10-11T06:04:36.721Z,86.80
2018-10-11T06:05:25.153Z,86.69
2018-10-11T06:06:25.175Z,86.59
2018-10-11T06:07:25.217Z,87.20
2018-10-11T06:08:25.087Z,87.51
2018-10-11T06:09:25.082Z,87.20
2018-10-11T06:10:25.180Z,87.16
2018-10-11T06:11:34.571Z,87.06
2018-10-11T06:12:25.238Z,86.65
2018-10-11T06:13:25.186Z,87.06
2018-10-11T06:14:33.117Z,86.96
2018-10-11T06:15:25.270Z,86.55
2018-10-11T06:16:25.067Z,86.65
2018-10-11T06:17:34.175Z,86.35
2018-10-11T06:19:54.355Z,86.10
2018-10-11T06:21:55.320Z,86.21
2018-10-11T06:22:55.292Z,86.30
2018-10-11T06:24:03.225Z,85.60
2018-10-11T06:24:55.223Z,86.10
2018-10-11T06:26:03.118Z,86.30
2018-10-11T06:26:55.504Z,85.90
2018-10-11T06:29:09.619Z,86.35
2018-10-11T06:31:35.578Z,86.65
2018-10-11T06:33:48.622Z,86.76
2018-10-11T06:36:03.225Z,87.06
2018-10-11T06:37:10.722Z,87.16
2018-10-11T06:38:02.860Z,86.86
2018-10-11T06:39:02.765Z,86.86
2018-10-11T06:40:10.786Z,86.86
2018-10-11T06:41:02.850Z,86.76
2018-10-11T06:42:02.754Z,86.96
2018-10-11T06:43:11.626Z,86.86
2018-10-11T06:44:02.756Z,86.61
2018-10-11T06:45:10.782Z,86.61
2018-10-11T06:46:15.397Z,86.86
2018-10-11T06:48:17.094Z,86.51
2018-10-11T06:49:17.025Z,86.41
2018-10-11T06:51:41.905Z,86.47
2018-10-11T06:56:06.172Z,85.61
2018-10-11T06:57:06.375Z,84.80
2018-10-11T06:58:06.170Z,84.59
2018-10-11T06:59:05.975Z,84.90
2018-10-11T07:00:05.918Z,84.50
2018-10-11T07:01:05.925Z,84.39
2018-10-11T07:02:15.191Z,84.50
2018-10-11T07:03:06.202Z,84.19
2018-10-11T07:04:06.179Z,83.89
2018-10-11T07:05:05.971Z,84.09
2018-10-11T07:06:05.892Z,84.15
2018-10-11T07:07:06.064Z,84.86
2018-10-11T07:08:05.954Z,84.45
2018-10-11T07:09:06.037Z,84.35
2018-10-11T07:10:05.849Z,84.35
2018-10-11T07:11:05.815Z,83.95
2018-10-11T07:12:05.889Z,84.35
2018-10-11T07:13:05.781Z,83.95
2018-10-11T07:14:05.868Z,83.95
2018-10-11T07:15:05.841Z,84.35
2018-10-11T07:16:05.757Z,84.45
2018-10-11T07:17:05.731Z,83.64
2018-10-11T07:18:05.788Z,83.60
2018-10-11T07:19:05.742Z,83.60
2018-10-11T07:20:05.714Z,83.09
2018-10-11T07:21:05.688Z,83.60
2018-10-11T07:22:13.853Z,84.21
2018-10-11T07:23:05.955Z,83.91
2018-10-11T07:24:05.949Z,82.75
2018-10-11T07:25:05.747Z,83.06
2018-10-11T07:26:06.002Z,83.15
2018-10-11T07:27:05.660Z,83.36
2018-10-11T07:28:05.612Z,83.56
2018-10-11T07:29:05.652Z,82.85
2018-10-11T07:30:05.602Z,83.67
2018-10-11T07:31:05.600Z,83.97
2018-10-11T07:32:05.632Z,83.97
2018-10-11T07:33:05.568Z,83.87
2018-10-11T07:34:05.557Z,83.26
2018-10-11T07:35:05.642Z,84.17
2018-10-11T07:36:05.543Z,84.13
2018-10-11T07:37:05.518Z,82.57
2018-10-11T07:38:05.494Z,81.15
2018-10-11T07:39:05.491Z,81.52
2018-10-11T07:40:05.511Z,80.71
2018-10-11T07:41:05.526Z,81.11
2018-10-11T07:42:14.832Z,81.52
2018-10-11T07:43:05.506Z,81.92
2018-10-11T07:44:05.435Z,81.18
2018-10-11T07:45:05.483Z,81.62
2018-10-11T07:46:05.592Z,80.60
2018-10-11T07:47:05.578Z,80.36
2018-10-11T07:48:05.484Z,81.21
2018-10-11T07:49:05.399Z,80.57
2018-10-11T07:50:05.401Z,80.43
2018-10-11T07:51:05.358Z,79.03
2018-10-11T07:52:05.341Z,77.30
2018-10-11T07:53:05.344Z,73.79
2018-10-11T07:54:05.529Z,72.95
2018-10-11T07:55:05.328Z,71.94
2018-10-11T07:56:05.297Z,70.19
2018-10-11T07:57:05.351Z,69.12
2018-10-11T07:58:05.275Z,67.57
2018-10-11T07:59:05.263Z,67.27
2018-10-11T08:00:14.339Z,66.63
2018-10-11T08:01:05.301Z,66.03
2018-10-11T08:02:05.228Z,66.60
2018-10-11T08:03:05.229Z,65.90
2018-10-11T08:04:05.315Z,66.43
2018-10-11T08:05:05.226Z,66.53
2018-10-11T08:06:05.270Z,67.14
2018-10-11T08:07:05.261Z,67.44
2018-10-11T08:08:05.260Z,68.08
2018-10-11T08:09:05.206Z,68.18
2018-10-11T08:10:05.251Z,68.41
2018-10-11T08:11:05.360Z,68.61
2018-10-11T08:12:05.200Z,68.95
2018-10-11T08:13:05.146Z,69.95
2018-10-11T08:14:05.099Z,69.95
2018-10-11T08:15:05.089Z,70.66
2018-10-11T08:16:05.187Z,70.06
2018-10-11T08:17:05.304Z,70.15
2018-10-11T08:18:05.069Z,70.36
2018-10-11T08:19:05.230Z,69.38
2018-10-11T08:20:12.983Z,70.19
2018-10-11T08:21:05.048Z,70.86
2018-10-11T08:22:05.164Z,70.86
2018-10-11T08:23:05.034Z,70.36
2018-10-11T08:24:05.052Z,70.19
2018-10-11T08:25:05.185Z,69.68
2018-10-11T08:26:05.344Z,70.29
2018-10-11T08:27:05.029Z,70.59
2018-10-11T08:28:04.981Z,72.17
2018-10-11T08:29:05.029Z,71.17
2018-10-11T08:30:04.986Z,70.26
2018-10-11T08:31:04.954Z,71.37
2018-10-11T08:32:04.916Z,71.67
2018-10-11T08:33:05.002Z,70.46
2018-10-11T08:34:04.881Z,70.86
2018-10-11T08:35:04.900Z,71.97
2018-10-11T08:36:04.870Z,70.26
2018-10-11T08:37:04.899Z,68.74
2018-10-11T08:38:04.962Z,68.34
2018-10-11T08:39:04.825Z,68.04
2018-10-11T08:40:13.774Z,67.23
2018-10-11T08:41:04.901Z,66.93
2018-10-11T08:42:04.908Z,67.43
2018-10-11T08:43:04.822Z,67.54
2018-10-11T08:44:04.887Z,67.43
2018-10-11T08:45:04.759Z,67.43
2018-10-11T08:46:04.783Z,68.44
2018-10-11T08:47:04.735Z,67.33
2018-10-11T08:48:04.746Z,67.63
2018-10-11T08:49:04.775Z,66.42
2018-10-11T08:50:04.833Z,67.13
2018-10-11T08:51:04.745Z,67.63
2018-10-11T08:52:04.681Z,68.04
2018-10-11T08:53:04.870Z,67.63
2018-10-11T08:54:04.714Z,67.13
2018-10-11T08:55:04.651Z,67.33
2018-10-11T08:56:04.802Z,67.43
2018-10-11T08:57:04.629Z,68.44
2018-10-11T08:58:04.635Z,68.44
2018-10-11T08:59:14.037Z,68.34
2018-10-11T09:00:04.630Z,68.34
2018-10-11T09:01:04.627Z,68.54
2018-10-11T09:02:04.823Z,68.74
2018-10-11T09:03:04.594Z,68.44
2018-10-11T09:04:04.763Z,69.05
2018-10-11T09:05:04.637Z,68.44
2018-10-11T09:06:04.583Z,67.94
2018-10-11T09:07:04.518Z,68.91
2018-10-11T09:08:04.562Z,70.26
2018-10-11T09:09:04.510Z,68.34
2018-10-11T09:10:04.499Z,68.95
2018-10-11T09:11:04.631Z,68.34
2018-10-11T09:12:04.476Z,68.41
2018-10-11T09:13:04.453Z,68.81
2018-10-11T09:14:04.549Z,69.01
2018-10-11T09:15:04.513Z,68.61
2018-10-11T09:16:04.667Z,68.68
2018-10-11T09:17:04.431Z,67.80
2018-10-11T09:18:04.392Z,68.38
2018-10-11T09:19:13.475Z,67.97
2018-10-11T09:20:04.384Z,67.68
2018-10-11T09:21:04.360Z,68.04
2018-10-11T09:22:04.414Z,67.54
2018-10-11T09:23:04.440Z,66.43
2018-10-11T09:24:04.359Z,65.39
2018-10-11T09:25:04.317Z,64.76
2018-10-11T09:26:04.305Z,64.29
2018-10-11T09:27:04.349Z,64.86
2018-10-11T09:28:04.339Z,64.16
2018-10-11T09:29:04.277Z,63.76
2018-10-11T09:30:04.260Z,64.43
2018-10-11T09:31:04.291Z,62.62
2018-10-11T09:32:04.252Z,62.42
2018-10-11T09:33:04.226Z,62.49
2018-10-11T09:34:04.233Z,62.52
2018-10-11T09:35:04.204Z,63.49
2018-10-11T09:36:04.199Z,64.03
2018-10-11T09:37:04.197Z,63.12
2018-10-11T09:38:12.073Z,63.22
2018-10-11T09:39:04.194Z,62.39
2018-10-11T09:40:04.272Z,62.19
2018-10-11T09:41:04.173Z,62.29
2018-10-11T09:42:04.126Z,62.69
2018-10-11T09:43:04.158Z,61.55
2018-10-11T09:44:04.289Z,62.29
2018-10-11T09:45:04.159Z,62.56
2018-10-11T09:46:04.182Z,62.69
2018-10-11T09:47:04.290Z,62.08
2018-10-11T09:48:04.264Z,62.19
2018-10-11T09:49:04.157Z,61.88
2018-10-11T09:50:04.476Z,61.05
2018-10-11T09:51:04.105Z,62.26
2018-10-11T09:52:04.031Z,62.46
2018-10-11T09:53:04.055Z,62.39
2018-10-11T09:54:04.001Z,61.86
2018-10-11T09:55:03.994Z,61.76
2018-10-11T09:56:04.020Z,62.56
2018-10-11T09:57:14.492Z,62.66
2018-10-11T09:58:04.039Z,62.56
2018-10-11T09:59:04.113Z,62.36
2018-10-11T10:00:04.022Z,62.23
2018-10-11T10:01:03.948Z,60.32
2018-10-11T10:02:04.055Z,60.32
2018-10-11T10:03:04.168Z,62.00
2018-10-11T10:04:03.898Z,61.83
2018-10-11T10:05:04.030Z,61.43
2018-10-11T10:06:03.896Z,59.99
2018-10-11T10:07:03.953Z,60.10
2018-10-11T10:08:03.928Z,60.39
2018-10-11T10:09:04.017Z,60.47
2018-10-11T10:10:04.008Z,60.57
2018-10-11T10:11:03.956Z,61.60
2018-10-11T10:12:03.798Z,61.27
2018-10-11T10:13:03.837Z,59.86
2018-10-11T10:14:03.792Z,60.97
2018-10-11T10:15:03.772Z,59.23
2018-10-11T10:16:03.813Z,59.03
2018-10-11T10:17:11.792Z,58.61
2018-10-11T10:18:03.856Z,58.91
2018-10-11T10:19:03.812Z,58.37
2018-10-11T10:20:03.798Z,57.90
2018-10-11T10:21:03.797Z,58.58
2018-10-11T10:22:03.860Z,59.98
2018-10-11T10:23:04.066Z,58.87
2018-10-11T10:24:03.716Z,57.87
2018-10-11T10:25:03.654Z,57.95
2018-10-11T10:26:03.720Z,59.05
2018-10-11T10:27:03.816Z,57.22
2018-10-11T10:28:03.648Z,56.82
2018-10-11T10:29:03.653Z,57.22
2018-10-11T10:30:03.599Z,56.12
2018-10-11T10:31:03.595Z,56.20
2018-10-11T10:32:03.578Z,56.29
2018-10-11T10:33:03.563Z,55.89
2018-10-11T10:34:03.620Z,54.99
2018-10-11T10:35:03.545Z,55.36
2018-10-11T10:36:03.530Z,55.66
2018-10-11T10:37:11.699Z,56.57
2018-10-11T10:38:03.539Z,55.57
2018-10-11T10:39:03.512Z,54.54
2018-10-11T10:40:03.741Z,54.94
2018-10-11T10:41:03.480Z,55.44
2018-10-11T10:42:03.532Z,54.84
2018-10-11T10:43:03.476Z,52.94
2018-10-11T10:44:03.447Z,53.24
2018-10-11T10:45:03.499Z,54.91
2018-10-11T10:46:03.472Z,53.22
2018-10-11T10:47:03.411Z,53.61
2018-10-11T10:48:03.428Z,54.19
2018-10-11T10:49:03.421Z,54.39
2018-10-11T10:50:03.409Z,55.19
2018-10-11T10:51:03.372Z,54.39
2018-10-11T10:52:03.370Z,55.58
2018-10-11T10:53:03.365Z,54.09
2018-10-11T10:54:03.335Z,53.09
2018-10-11T10:55:03.336Z,52.89
2018-10-11T10:56:11.341Z,53.39
2018-10-11T10:57:03.314Z,52.37
2018-10-11T10:58:03.346Z,52.76
2018-10-11T10:59:03.343Z,53.17
2018-10-11T11:00:03.269Z,53.36
2018-10-11T11:01:03.267Z,52.87
2018-10-11T11:02:03.274Z,53.47
2018-10-11T11:03:03.260Z,52.97
2018-10-11T11:04:03.274Z,54.44
2018-10-11T11:05:03.253Z,52.74
2018-10-11T11:06:03.206Z,53.24
2018-10-11T11:07:03.260Z,52.37
2018-10-11T11:08:03.183Z,53.24
2018-10-11T11:09:03.185Z,52.14
2018-10-11T11:10:03.190Z,52.14
2018-10-11T11:11:03.176Z,52.47
2018-10-11T11:12:03.191Z,52.67
2018-10-11T11:13:03.179Z,52.57
2018-10-11T11:14:03.155Z,52.44
2018-10-11T11:15:03.109Z,52.94
2018-10-11T11:16:13.156Z,53.14
2018-10-11T11:17:03.162Z,52.34
2018-10-11T11:18:03.072Z,52.17
2018-10-11T11:19:03.112Z,51.84
2018-10-11T11:20:03.048Z,52.76
2018-10-11T11:21:03.111Z,52.07
2018-10-11T11:22:03.161Z,52.87
2018-10-11T11:23:03.066Z,52.44
2018-10-11T11:24:03.041Z,52.74
2018-10-11T11:25:03.067Z,53.06
2018-10-11T11:26:02.982Z,53.56
2018-10-11T11:27:02.974Z,53.19
2018-10-11T11:28:02.990Z,53.19
2018-10-11T11:29:02.954Z,52.79
2018-10-11T11:30:02.986Z,52.89
2018-10-11T11:31:02.939Z,53.29
2018-10-11T11:32:02.939Z,52.97
2018-10-11T11:33:02.953Z,53.06
2018-10-11T11:34:02.945Z,52.87
2018-10-11T11:35:10.801Z,52.57
2018-10-11T11:36:02.953Z,52.27
2018-10-11T11:37:02.920Z,51.84
2018-10-11T11:38:02.899Z,52.34
2018-10-11T11:39:02.907Z,52.55
2018-10-11T11:40:03.062Z,50.92
2018-10-11T11:41:02.860Z,52.22
2018-10-11T11:42:02.804Z,51.72
2018-10-11T11:43:02.797Z,51.20
2018-10-11T11:44:02.803Z,51.79
2018-10-11T11:45:02.808Z,51.20
2018-10-11T11:46:02.779Z,50.30
2018-10-11T11:47:02.749Z,50.20
2018-10-11T11:48:02.768Z,51.50
2018-10-11T11:49:02.727Z,50.40
2018-10-11T11:50:02.723Z,51.89
2018-10-11T11:51:02.704Z,51.10
2018-10-11T11:52:02.719Z,51.42
2018-10-11T11:53:02.758Z,51.32
2018-10-11T11:54:02.674Z,51.92
2018-10-11T11:55:02.670Z,50.23
2018-10-11T11:56:02.650Z,50.10
2018-10-11T11:57:02.645Z,51.70
2018-10-11T11:58:02.707Z,52.99
2018-10-11T11:59:02.645Z,50.32
2018-10-11T12:00:02.629Z,50.70
2018-10-11T12:01:02.621Z,50.20
2018-10-11T12:02:02.584Z,51.03
2018-10-11T12:03:02.571Z,50.73
2018-10-11T12:04:02.586Z,50.50
2018-10-11T12:05:02.605Z,51.20
2018-10-11T12:06:02.543Z,51.00
2018-10-11T12:07:02.550Z,50.23
2018-10-11T12:08:02.516Z,49.83
2018-10-11T12:09:02.505Z,49.83
2018-10-11T12:10:02.511Z,50.32
2018-10-11T12:11:02.554Z,50.13
2018-10-11T12:12:02.471Z,50.52
2018-10-11T12:13:02.467Z,49.93
2018-10-11T12:14:10.325Z,51.40
2018-10-11T12:15:02.465Z,51.89
2018-10-11T12:16:02.458Z,52.59
2018-10-11T12:17:02.434Z,50.20
2018-10-11T12:18:02.463Z,51.10
2018-10-11T12:19:02.397Z,51.29
2018-10-11T12:20:02.458Z,52.79
2018-10-11T12:21:02.424Z,50.70
2018-10-11T12:22:02.495Z,50.50
2018-10-11T12:23:02.432Z,50.30
2018-10-11T12:24:02.381Z,50.90
2018-10-11T12:25:02.443Z,51.10
2018-10-11T12:26:02.338Z,50.10
2018-10-11T12:27:02.326Z,50.27
2018-10-11T12:28:02.474Z,50.08
2018-10-11T12:29:02.491Z,51.10
2018-10-11T12:30:02.297Z,49.60
2018-10-11T12:31:02.288Z,49.90
2018-10-11T12:32:02.282Z,50.40
2018-10-11T12:33:02.302Z,49.48
2018-10-11T12:34:11.311Z,49.28
2018-10-11T12:35:02.228Z,50.00
2018-10-11T12:36:02.206Z,50.38
2018-10-11T12:37:02.225Z,51.07
2018-10-11T12:38:02.239Z,50.48
2018-10-11T12:39:02.228Z,49.58
2018-10-11T12:40:02.185Z,50.68
2018-10-11T12:41:02.163Z,49.58
2018-10-11T12:42:02.137Z,50.80
2018-10-11T12:43:02.126Z,49.51
2018-10-11T12:44:02.117Z,49.70
2018-10-11T12:45:02.152Z,50.13
2018-10-11T12:46:02.141Z,49.53
2018-10-11T12:47:02.081Z,50.43
2018-10-11T12:48:02.073Z,51.72
2018-10-11T12:49:02.120Z,50.20
2018-10-11T12:50:02.133Z,50.80
2018-10-11T12:51:02.038Z,50.62
2018-10-11T12:52:02.124Z,50.52
2018-10-11T12:53:02.037Z,50.23
2018-10-11T12:54:02.015Z,50.65
2018-10-11T12:55:02.004Z,50.85
2018-10-11T12:56:01.983Z,51.84
2018-10-11T12:57:02.133Z,50.47
2018-10-11T12:58:02.011Z,50.37
2018-10-11T12:59:01.996Z,50.87
2018-10-11T13:00:01.943Z,50.67
2018-10-11T13:01:02.118Z,50.15
2018-10-11T13:02:01.950Z,50.77
2018-10-11T13:03:02.026Z,50.77
2018-10-11T13:04:01.897Z,50.87
2018-10-11T13:05:01.950Z,50.77
2018-10-11T13:06:01.870Z,52.27